sensor_id;sensor_type;location;lat;lon;timestamp;temperature;humidity
4293;DHT22;2160;51.172;6.808;2023-06-14T04:03:06;20.40;61.20
4293;DHT22;2160;51.172;6.808;2023-06-14T04:05:35;20.30;62.20
4293;DHT22;2160;51.172;6.808;2023-06-14T04:08:03;20.20;64.20
4293;DHT22;2160;51.172;6.808;2023-06-14T04:10:34;20.20;65.30
4293;DHT22;2160;51.172;6.808;2023-06-14T04:13:01;20.20;65.90
4293;DHT22;2160;51.172;6.808;2023-06-14T04:15:30;20.20;66.50
4293;DHT22;2160;51.172;6.808;2023-06-14T04:17:59;20.20;67.50
4293;DHT22;2160;51.172;6.808;2023-06-14T04:20:28;20.20;70.20
4293;DHT22;2160;51.172;6.808;2023-06-14T04:22:57;20.10;69.90
4293;DHT22;2160;51.172;6.808;2023-06-14T04:25:27;20.20;69.90
4293;DHT22;2160;51.172;6.808;2023-06-14T04:27:56;20.20;70.20
4293;DHT22;2160;51.172;6.808;2023-06-14T04:30:24;20.20;71.70
4293;DHT22;2160;51.172;6.808;2023-06-14T04:32:52;20.10;72.30
4293;DHT22;2160;51.172;6.808;2023-06-14T04:35:21;20.20;73.00
4293;DHT22;2160;51.172;6.808;2023-06-14T04:37:51;20.20;74.20
4293;DHT22;2160;51.172;6.808;2023-06-14T04:40:19;20.30;75.30
4293;DHT22;2160;51.172;6.808;2023-06-14T04:42:47;20.20;75.60
4293;DHT22;2160;51.172;6.808;2023-06-14T04:45:17;20.30;75.50
4293;DHT22;2160;51.172;6.808;2023-06-14T04:47:45;20.30;75.70
4293;DHT22;2160;51.172;6.808;2023-06-14T04:50:11;20.20;64.90
4293;DHT22;2160;51.172;6.808;2023-06-14T04:52:39;20.30;62.60
4293;DHT22;2160;51.172;6.808;2023-06-14T04:55:09;20.40;62.70
4293;DHT22;2160;51.172;6.808;2023-06-14T04:57:36;20.50;60.10
4293;DHT22;2160;51.172;6.808;2023-06-14T05:00:06;20.60;59.80
4293;DHT22;2160;51.172;6.808;2023-06-14T05:02:34;20.70;59.30
4293;DHT22;2160;51.172;6.808;2023-06-14T05:05:01;20.80;58.80
4293;DHT22;2160;51.172;6.808;2023-06-14T05:07:28;20.90;59.90
4293;DHT22;2160;51.172;6.808;2023-06-14T05:09:56;21.00;58.20
4293;DHT22;2160;51.172;6.808;2023-06-14T05:12:24;21.10;57.30
4293;DHT22;2160;51.172;6.808;2023-06-14T05:14:51;21.10;56.90
4293;DHT22;2160;51.172;6.808;2023-06-14T05:17:20;21.20;56.90
4293;DHT22;2160;51.172;6.808;2023-06-14T05:19:48;21.30;57.90
4293;DHT22;2160;51.172;6.808;2023-06-14T05:22:15;21.30;56.40
4293;DHT22;2160;51.172;6.808;2023-06-14T05:24:42;21.40;56.30
4293;DHT22;2160;51.172;6.808;2023-06-14T05:27:09;21.40;56.70
4293;DHT22;2160;51.172;6.808;2023-06-14T05:29:37;21.50;55.60
4293;DHT22;2160;51.172;6.808;2023-06-14T05:32:05;21.50;55.70
4293;DHT22;2160;51.172;6.808;2023-06-14T05:34:32;21.60;55.90
4293;DHT22;2160;51.172;6.808;2023-06-14T05:36:59;21.70;57.10
4293;DHT22;2160;51.172;6.808;2023-06-14T05:39:26;21.90;56.40
4293;DHT22;2160;51.172;6.808;2023-06-14T05:41:53;21.90;56.20
4293;DHT22;2160;51.172;6.808;2023-06-14T05:44:19;21.90;55.30
4293;DHT22;2160;51.172;6.808;2023-06-14T05:46:48;22.10;56.70
4293;DHT22;2160;51.172;6.808;2023-06-14T05:49:15;22.10;55.50
4293;DHT22;2160;51.172;6.808;2023-06-14T05:51:42;22.20;55.10
4293;DHT22;2160;51.172;6.808;2023-06-14T05:54:09;22.20;55.40
4293;DHT22;2160;51.172;6.808;2023-06-14T05:56:35;22.20;55.10
4293;DHT22;2160;51.172;6.808;2023-06-14T05:59:02;22.20;54.80
4293;DHT22;2160;51.172;6.808;2023-06-14T06:01:29;22.40;57.40
4293;DHT22;2160;51.172;6.808;2023-06-14T06:04:00;22.40;56.10
4293;DHT22;2160;51.172;6.808;2023-06-14T06:06:27;22.50;57.80
4293;DHT22;2160;51.172;6.808;2023-06-14T06:08:54;22.20;56.80
4293;DHT22;2160;51.172;6.808;2023-06-14T06:11:21;22.40;54.40
4293;DHT22;2160;51.172;6.808;2023-06-14T06:13:48;22.50;53.50
4293;DHT22;2160;51.172;6.808;2023-06-14T06:16:15;22.70;53.40
4293;DHT22;2160;51.172;6.808;2023-06-14T06:18:42;22.80;53.30
4293;DHT22;2160;51.172;6.808;2023-06-14T06:21:10;22.90;53.20
4293;DHT22;2160;51.172;6.808;2023-06-14T06:23:37;23.10;51.90
4293;DHT22;2160;51.172;6.808;2023-06-14T06:26:04;23.20;52.10
4293;DHT22;2160;51.172;6.808;2023-06-14T06:28:31;23.20;51.40
4293;DHT22;2160;51.172;6.808;2023-06-14T06:30:58;23.20;52.00
4293;DHT22;2160;51.172;6.808;2023-06-14T06:33:25;23.20;50.80
4293;DHT22;2160;51.172;6.808;2023-06-14T06:35:52;23.20;51.60
4293;DHT22;2160;51.172;6.808;2023-06-14T06:38:20;23.30;50.50
4293;DHT22;2160;51.172;6.808;2023-06-14T06:40:47;23.40;49.80
4293;DHT22;2160;51.172;6.808;2023-06-14T06:43:15;23.40;49.00
4293;DHT22;2160;51.172;6.808;2023-06-14T06:45:46;23.50;50.00
4293;DHT22;2160;51.172;6.808;2023-06-14T06:48:13;23.60;50.30
4293;DHT22;2160;51.172;6.808;2023-06-14T06:50:41;23.60;49.30
4293;DHT22;2160;51.172;6.808;2023-06-14T06:53:08;23.80;49.70
4293;DHT22;2160;51.172;6.808;2023-06-14T06:55:37;23.90;48.10
4293;DHT22;2160;51.172;6.808;2023-06-14T06:58:03;23.90;49.80
4293;DHT22;2160;51.172;6.808;2023-06-14T07:00:31;23.90;50.00
4293;DHT22;2160;51.172;6.808;2023-06-14T07:02:58;23.90;47.80
4293;DHT22;2160;51.172;6.808;2023-06-14T07:05:25;23.90;49.10
4293;DHT22;2160;51.172;6.808;2023-06-14T07:07:52;24.00;46.00
4293;DHT22;2160;51.172;6.808;2023-06-14T07:10:18;24.00;44.60
4293;DHT22;2160;51.172;6.808;2023-06-14T07:12:47;24.20;44.00
4293;DHT22;2160;51.172;6.808;2023-06-14T07:15:14;24.10;44.20
4293;DHT22;2160;51.172;6.808;2023-06-14T07:17:41;24.20;42.20
4293;DHT22;2160;51.172;6.808;2023-06-14T07:20:09;24.20;44.30
4293;DHT22;2160;51.172;6.808;2023-06-14T07:22:38;24.30;42.60
4293;DHT22;2160;51.172;6.808;2023-06-14T07:25:07;24.40;42.50
4293;DHT22;2160;51.172;6.808;2023-06-14T07:27:34;24.40;41.80
4293;DHT22;2160;51.172;6.808;2023-06-14T07:30:03;24.50;42.30
4293;DHT22;2160;51.172;6.808;2023-06-14T07:32:30;24.50;44.70
4293;DHT22;2160;51.172;6.808;2023-06-14T07:34:57;24.50;42.20
4293;DHT22;2160;51.172;6.808;2023-06-14T07:37:24;24.50;40.60
4293;DHT22;2160;51.172;6.808;2023-06-14T07:39:51;24.50;40.30
4293;DHT22;2160;51.172;6.808;2023-06-14T07:42:18;24.50;38.80
4293;DHT22;2160;51.172;6.808;2023-06-14T07:44:45;24.50;38.90
4293;DHT22;2160;51.172;6.808;2023-06-14T07:47:13;24.70;38.50
4293;DHT22;2160;51.172;6.808;2023-06-14T07:49:40;24.70;37.60
4293;DHT22;2160;51.172;6.808;2023-06-14T07:52:07;24.90;37.40
4293;DHT22;2160;51.172;6.808;2023-06-14T07:54:35;24.80;36.50
4293;DHT22;2160;51.172;6.808;2023-06-14T07:57:02;24.90;37.00
4293;DHT22;2160;51.172;6.808;2023-06-14T07:59:30;24.90;38.40
4293;DHT22;2160;51.172;6.808;2023-06-14T08:01:57;25.00;36.20
4293;DHT22;2160;51.172;6.808;2023-06-14T08:04:25;24.90;38.70
4293;DHT22;2160;51.172;6.808;2023-06-14T08:06:52;24.90;37.20
4293;DHT22;2160;51.172;6.808;2023-06-14T08:09:19;25.00;35.40
4293;DHT22;2160;51.172;6.808;2023-06-14T08:11:46;24.90;35.40
4293;DHT22;2160;51.172;6.808;2023-06-14T08:14:13;25.10;37.20
4293;DHT22;2160;51.172;6.808;2023-06-14T08:16:40;25.20;38.00
4293;DHT22;2160;51.172;6.808;2023-06-14T08:19:07;25.30;35.80
4293;DHT22;2160;51.172;6.808;2023-06-14T08:21:36;25.30;35.90
4293;DHT22;2160;51.172;6.808;2023-06-14T08:24:03;25.30;37.30
4293;DHT22;2160;51.172;6.808;2023-06-14T08:26:30;25.30;36.70
4293;DHT22;2160;51.172;6.808;2023-06-14T08:28:58;25.30;38.00
4293;DHT22;2160;51.172;6.808;2023-06-14T08:31:25;25.30;35.00
4293;DHT22;2160;51.172;6.808;2023-06-14T08:33:53;25.10;34.40
4293;DHT22;2160;51.172;6.808;2023-06-14T08:36:20;25.20;35.00
4293;DHT22;2160;51.172;6.808;2023-06-14T08:38:49;25.30;34.70
4293;DHT22;2160;51.172;6.808;2023-06-14T08:41:21;25.40;35.60
4293;DHT22;2160;51.172;6.808;2023-06-14T08:43:50;25.40;36.80
4293;DHT22;2160;51.172;6.808;2023-06-14T08:46:18;25.50;33.50
4293;DHT22;2160;51.172;6.808;2023-06-14T08:48:48;25.60;35.20
4293;DHT22;2160;51.172;6.808;2023-06-14T08:51:19;25.60;37.00
4293;DHT22;2160;51.172;6.808;2023-06-14T08:53:52;25.70;37.80
4293;DHT22;2160;51.172;6.808;2023-06-14T08:56:20;25.60;39.00
4293;DHT22;2160;51.172;6.808;2023-06-14T08:58:49;25.60;37.30
4293;DHT22;2160;51.172;6.808;2023-06-14T09:01:16;25.70;37.50
4293;DHT22;2160;51.172;6.808;2023-06-14T09:03:43;25.60;38.90
4293;DHT22;2160;51.172;6.808;2023-06-14T09:06:11;25.60;38.80
4293;DHT22;2160;51.172;6.808;2023-06-14T09:08:41;25.70;39.90
4293;DHT22;2160;51.172;6.808;2023-06-14T09:11:12;25.80;37.20
4293;DHT22;2160;51.172;6.808;2023-06-14T09:13:40;25.70;37.10
4293;DHT22;2160;51.172;6.808;2023-06-14T09:16:08;25.90;38.10
4293;DHT22;2160;51.172;6.808;2023-06-14T09:18:35;25.90;40.90
4293;DHT22;2160;51.172;6.808;2023-06-14T09:21:03;26.00;39.70
4293;DHT22;2160;51.172;6.808;2023-06-14T09:23:33;26.00;40.80
4293;DHT22;2160;51.172;6.808;2023-06-14T09:26:01;25.90;38.90
4293;DHT22;2160;51.172;6.808;2023-06-14T09:28:34;25.90;39.70
4293;DHT22;2160;51.172;6.808;2023-06-14T09:31:01;25.80;39.50
4293;DHT22;2160;51.172;6.808;2023-06-14T09:33:28;25.70;39.10
4293;DHT22;2160;51.172;6.808;2023-06-14T09:35:55;25.70;38.10
4293;DHT22;2160;51.172;6.808;2023-06-14T09:38:22;25.80;39.30
4293;DHT22;2160;51.172;6.808;2023-06-14T09:40:50;25.90;40.70
4293;DHT22;2160;51.172;6.808;2023-06-14T09:43:17;25.90;41.20
4293;DHT22;2160;51.172;6.808;2023-06-14T09:45:46;25.90;40.40
4293;DHT22;2160;51.172;6.808;2023-06-14T09:48:14;25.90;39.20
4293;DHT22;2160;51.172;6.808;2023-06-14T09:50:45;25.90;39.60
4293;DHT22;2160;51.172;6.808;2023-06-14T09:53:13;25.90;39.80
4293;DHT22;2160;51.172;6.808;2023-06-14T09:55:41;25.90;41.40
4293;DHT22;2160;51.172;6.808;2023-06-14T09:58:10;26.00;39.00
4293;DHT22;2160;51.172;6.808;2023-06-14T10:00:38;26.00;38.00
4293;DHT22;2160;51.172;6.808;2023-06-14T10:03:13;25.80;36.90
4293;DHT22;2160;51.172;6.808;2023-06-14T10:05:43;25.90;37.80
4293;DHT22;2160;51.172;6.808;2023-06-14T10:08:14;25.80;39.00
4293;DHT22;2160;51.172;6.808;2023-06-14T10:10:42;25.90;38.70
4293;DHT22;2160;51.172;6.808;2023-06-14T10:13:10;25.80;37.70
4293;DHT22;2160;51.172;6.808;2023-06-14T10:15:43;25.90;37.90
4293;DHT22;2160;51.172;6.808;2023-06-14T10:18:19;25.90;38.80
4293;DHT22;2160;51.172;6.808;2023-06-14T10:20:55;25.80;38.30
4293;DHT22;2160;51.172;6.808;2023-06-14T10:23:25;25.90;38.20
4293;DHT22;2160;51.172;6.808;2023-06-14T10:25:56;26.00;38.50
4293;DHT22;2160;51.172;6.808;2023-06-14T10:28:25;26.10;39.90
4293;DHT22;2160;51.172;6.808;2023-06-14T10:31:02;26.10;40.40
4293;DHT22;2160;51.172;6.808;2023-06-14T10:33:32;26.10;40.20
4293;DHT22;2160;51.172;6.808;2023-06-14T10:38:58;26.10;38.00
4293;DHT22;2160;51.172;6.808;2023-06-14T10:41:27;26.30;39.10
4293;DHT22;2160;51.172;6.808;2023-06-14T10:46:55;26.50;39.40
4293;DHT22;2160;51.172;6.808;2023-06-14T10:49:41;26.50;38.10
4293;DHT22;2160;51.172;6.808;2023-06-14T10:52:12;26.60;39.00
4293;DHT22;2160;51.172;6.808;2023-06-14T10:55:05;26.80;38.60
4293;DHT22;2160;51.172;6.808;2023-06-14T10:57:35;26.90;39.80
4293;DHT22;2160;51.172;6.808;2023-06-14T11:00:03;26.90;40.40
4293;DHT22;2160;51.172;6.808;2023-06-14T11:03:19;27.00;39.30
4293;DHT22;2160;51.172;6.808;2023-06-14T11:05:54;27.10;39.20
4293;DHT22;2160;51.172;6.808;2023-06-14T11:08:39;27.00;39.40
4293;DHT22;2160;51.172;6.808;2023-06-14T11:11:08;27.10;38.60
4293;DHT22;2160;51.172;6.808;2023-06-14T11:13:38;27.10;39.60
4293;DHT22;2160;51.172;6.808;2023-06-14T11:16:10;27.20;38.60
4293;DHT22;2160;51.172;6.808;2023-06-14T11:18:38;27.00;37.90
4293;DHT22;2160;51.172;6.808;2023-06-14T11:21:07;27.10;38.20
4293;DHT22;2160;51.172;6.808;2023-06-14T11:23:35;27.00;39.00
4293;DHT22;2160;51.172;6.808;2023-06-14T11:26:02;27.10;39.10
4293;DHT22;2160;51.172;6.808;2023-06-14T11:28:38;27.10;38.90
4293;DHT22;2160;51.172;6.808;2023-06-14T11:31:06;27.20;39.70
4293;DHT22;2160;51.172;6.808;2023-06-14T11:33:34;27.30;39.80
4293;DHT22;2160;51.172;6.808;2023-06-14T11:36:02;27.60;39.60
4293;DHT22;2160;51.172;6.808;2023-06-14T11:38:35;27.60;38.10
4293;DHT22;2160;51.172;6.808;2023-06-14T11:41:02;27.70;38.50
4293;DHT22;2160;51.172;6.808;2023-06-14T11:43:29;27.70;39.10
4293;DHT22;2160;51.172;6.808;2023-06-14T11:45:57;27.90;39.00
4293;DHT22;2160;51.172;6.808;2023-06-14T11:48:36;27.90;37.60
4293;DHT22;2160;51.172;6.808;2023-06-14T11:51:03;27.90;37.90
4293;DHT22;2160;51.172;6.808;2023-06-14T11:53:31;28.00;38.70
4293;DHT22;2160;51.172;6.808;2023-06-14T11:55:59;28.10;39.10
4293;DHT22;2160;51.172;6.808;2023-06-14T11:58:26;28.10;38.60
4293;DHT22;2160;51.172;6.808;2023-06-14T12:00:53;27.90;37.40
4293;DHT22;2160;51.172;6.808;2023-06-14T12:03:23;28.10;38.20
4293;DHT22;2160;51.172;6.808;2023-06-14T12:06:01;28.20;40.40
4293;DHT22;2160;51.172;6.808;2023-06-14T12:08:34;28.10;39.20
4293;DHT22;2160;51.172;6.808;2023-06-14T12:11:04;28.30;39.80
4293;DHT22;2160;51.172;6.808;2023-06-14T12:13:34;28.30;37.50
4293;DHT22;2160;51.172;6.808;2023-06-14T12:16:04;28.30;39.90
4293;DHT22;2160;51.172;6.808;2023-06-14T12:18:32;28.50;38.60
4293;DHT22;2160;51.172;6.808;2023-06-14T12:21:00;28.50;39.10
4293;DHT22;2160;51.172;6.808;2023-06-14T12:23:44;28.30;36.80
4293;DHT22;2160;51.172;6.808;2023-06-14T12:26:13;28.20;36.60
4293;DHT22;2160;51.172;6.808;2023-06-14T12:28:40;28.30;37.20
4293;DHT22;2160;51.172;6.808;2023-06-14T12:31:09;28.40;38.70
4293;DHT22;2160;51.172;6.808;2023-06-14T12:33:37;28.50;37.90
4293;DHT22;2160;51.172;6.808;2023-06-14T12:36:04;28.50;37.10
4293;DHT22;2160;51.172;6.808;2023-06-14T12:38:32;28.60;37.20
4293;DHT22;2160;51.172;6.808;2023-06-14T12:41:01;28.80;37.30
4293;DHT22;2160;51.172;6.808;2023-06-14T12:43:28;28.60;37.10
4293;DHT22;2160;51.172;6.808;2023-06-14T12:45:55;28.60;36.60
4293;DHT22;2160;51.172;6.808;2023-06-14T12:48:22;28.70;36.80
4293;DHT22;2160;51.172;6.808;2023-06-14T12:50:49;28.80;37.90
4293;DHT22;2160;51.172;6.808;2023-06-14T12:53:16;29.10;37.30
4293;DHT22;2160;51.172;6.808;2023-06-14T12:55:43;29.20;37.90
4293;DHT22;2160;51.172;6.808;2023-06-14T12:58:12;29.30;38.50
4293;DHT22;2160;51.172;6.808;2023-06-14T13:00:39;29.20;36.50
4293;DHT22;2160;51.172;6.808;2023-06-14T13:03:06;29.20;38.80
4293;DHT22;2160;51.172;6.808;2023-06-14T13:05:34;29.10;38.60
4293;DHT22;2160;51.172;6.808;2023-06-14T13:08:01;29.10;38.70
4293;DHT22;2160;51.172;6.808;2023-06-14T13:10:28;29.10;39.00
4293;DHT22;2160;51.172;6.808;2023-06-14T13:12:55;28.90;36.70
4293;DHT22;2160;51.172;6.808;2023-06-14T13:15:25;29.00;37.90
4293;DHT22;2160;51.172;6.808;2023-06-14T13:17:52;28.90;35.70
4293;DHT22;2160;51.172;6.808;2023-06-14T13:20:19;29.00;35.80
4293;DHT22;2160;51.172;6.808;2023-06-14T13:22:46;29.10;37.10
4293;DHT22;2160;51.172;6.808;2023-06-14T13:25:13;29.20;36.70
4293;DHT22;2160;51.172;6.808;2023-06-14T13:27:40;29.00;36.90
4293;DHT22;2160;51.172;6.808;2023-06-14T13:30:07;29.00;36.80
4293;DHT22;2160;51.172;6.808;2023-06-14T13:32:36;29.10;38.40
4293;DHT22;2160;51.172;6.808;2023-06-14T13:35:04;29.10;37.50
4293;DHT22;2160;51.172;6.808;2023-06-14T13:37:31;29.20;37.90
4293;DHT22;2160;51.172;6.808;2023-06-14T13:39:58;29.20;38.80
4293;DHT22;2160;51.172;6.808;2023-06-14T13:42:25;29.30;37.90
4293;DHT22;2160;51.172;6.808;2023-06-14T13:44:52;29.30;37.70
4293;DHT22;2160;51.172;6.808;2023-06-14T13:47:19;29.30;35.30
4293;DHT22;2160;51.172;6.808;2023-06-14T13:49:48;29.20;35.70
4293;DHT22;2160;51.172;6.808;2023-06-14T13:52:15;29.20;37.00
4293;DHT22;2160;51.172;6.808;2023-06-14T13:54:41;29.20;36.60
4293;DHT22;2160;51.172;6.808;2023-06-14T13:57:09;29.20;35.90
4293;DHT22;2160;51.172;6.808;2023-06-14T13:59:38;29.20;36.60
4293;DHT22;2160;51.172;6.808;2023-06-14T14:02:05;29.30;37.50
4293;DHT22;2160;51.172;6.808;2023-06-14T14:04:33;29.30;36.60
4293;DHT22;2160;51.172;6.808;2023-06-14T14:07:02;29.30;37.60
4293;DHT22;2160;51.172;6.808;2023-06-14T14:09:29;29.30;37.40
4293;DHT22;2160;51.172;6.808;2023-06-14T14:11:56;29.40;37.40
4293;DHT22;2160;51.172;6.808;2023-06-14T14:14:23;29.50;36.40
4293;DHT22;2160;51.172;6.808;2023-06-14T14:16:50;29.30;35.70
4293;DHT22;2160;51.172;6.808;2023-06-14T14:19:19;29.30;35.50
4293;DHT22;2160;51.172;6.808;2023-06-14T14:21:47;29.30;36.70
4293;DHT22;2160;51.172;6.808;2023-06-14T14:24:15;29.50;36.00
4293;DHT22;2160;51.172;6.808;2023-06-14T14:26:42;29.40;36.10
4293;DHT22;2160;51.172;6.808;2023-06-14T14:29:09;29.40;35.80
4293;DHT22;2160;51.172;6.808;2023-06-14T14:31:37;29.40;35.90
4293;DHT22;2160;51.172;6.808;2023-06-14T14:34:04;29.30;37.20
4293;DHT22;2160;51.172;6.808;2023-06-14T14:36:31;29.30;35.90
4293;DHT22;2160;51.172;6.808;2023-06-14T14:39:01;29.40;38.00
4293;DHT22;2160;51.172;6.808;2023-06-14T14:41:30;29.50;37.10
4293;DHT22;2160;51.172;6.808;2023-06-14T14:43:57;29.50;37.20
4293;DHT22;2160;51.172;6.808;2023-06-14T14:46:24;29.60;36.40
4293;DHT22;2160;51.172;6.808;2023-06-14T14:48:51;29.70;34.60
4293;DHT22;2160;51.172;6.808;2023-06-14T14:51:18;29.80;34.90
4293;DHT22;2160;51.172;6.808;2023-06-14T14:53:45;29.80;35.30
4293;DHT22;2160;51.172;6.808;2023-06-14T14:56:12;29.70;34.90
4293;DHT22;2160;51.172;6.808;2023-06-14T14:58:41;29.70;34.20
4293;DHT22;2160;51.172;6.808;2023-06-14T15:01:07;29.80;36.00
4293;DHT22;2160;51.172;6.808;2023-06-14T15:03:34;29.80;35.50
4293;DHT22;2160;51.172;6.808;2023-06-14T15:06:01;29.90;34.50
4293;DHT22;2160;51.172;6.808;2023-06-14T15:08:28;29.90;34.50
4293;DHT22;2160;51.172;6.808;2023-06-14T15:10:55;29.80;36.70
4293;DHT22;2160;51.172;6.808;2023-06-14T15:13:22;29.50;33.60
4293;DHT22;2160;51.172;6.808;2023-06-14T15:15:51;29.40;34.70
4293;DHT22;2160;51.172;6.808;2023-06-14T15:18:18;29.60;35.30
4293;DHT22;2160;51.172;6.808;2023-06-14T15:20:46;29.70;35.60
4293;DHT22;2160;51.172;6.808;2023-06-14T15:23:13;29.80;35.50
4293;DHT22;2160;51.172;6.808;2023-06-14T15:25:45;29.90;34.80
4293;DHT22;2160;51.172;6.808;2023-06-14T15:28:13;29.80;35.10
4293;DHT22;2160;51.172;6.808;2023-06-14T15:30:40;29.90;34.70
4293;DHT22;2160;51.172;6.808;2023-06-14T15:33:08;30.00;35.70
4293;DHT22;2160;51.172;6.808;2023-06-14T15:35:36;30.10;34.60
4293;DHT22;2160;51.172;6.808;2023-06-14T15:38:03;29.90;36.50
4293;DHT22;2160;51.172;6.808;2023-06-14T15:40:29;29.70;32.70
4293;DHT22;2160;51.172;6.808;2023-06-14T15:42:56;29.70;32.90
4293;DHT22;2160;51.172;6.808;2023-06-14T15:45:24;29.70;33.00
4293;DHT22;2160;51.172;6.808;2023-06-14T15:47:50;29.80;32.70
4293;DHT22;2160;51.172;6.808;2023-06-14T15:50:19;29.90;33.20
4293;DHT22;2160;51.172;6.808;2023-06-14T15:52:46;29.80;32.40
4293;DHT22;2160;51.172;6.808;2023-06-14T15:55:13;29.80;32.80
4293;DHT22;2160;51.172;6.808;2023-06-14T15:57:40;29.90;33.10
4293;DHT22;2160;51.172;6.808;2023-06-14T16:00:08;29.80;32.50
4293;DHT22;2160;51.172;6.808;2023-06-14T16:02:35;29.60;31.30
4293;DHT22;2160;51.172;6.808;2023-06-14T16:05:02;29.30;34.10
4293;DHT22;2160;51.172;6.808;2023-06-14T16:07:31;29.30;32.50
4293;DHT22;2160;51.172;6.808;2023-06-14T16:09:58;29.20;30.60
4293;DHT22;2160;51.172;6.808;2023-06-14T16:12:25;29.40;31.10
4293;DHT22;2160;51.172;6.808;2023-06-14T16:14:52;29.50;30.20
4293;DHT22;2160;51.172;6.808;2023-06-14T16:17:19;29.60;30.00
4293;DHT22;2160;51.172;6.808;2023-06-14T16:19:47;29.60;30.00
4293;DHT22;2160;51.172;6.808;2023-06-14T16:22:14;29.70;29.80
4293;DHT22;2160;51.172;6.808;2023-06-14T16:24:42;29.70;30.10
4293;DHT22;2160;51.172;6.808;2023-06-14T16:27:09;29.80;30.40
4293;DHT22;2160;51.172;6.808;2023-06-14T16:29:36;29.90;31.70
4293;DHT22;2160;51.172;6.808;2023-06-14T16:32:04;29.80;30.50
4293;DHT22;2160;51.172;6.808;2023-06-14T16:34:31;29.90;31.30
4293;DHT22;2160;51.172;6.808;2023-06-14T16:36:59;29.80;29.90
4293;DHT22;2160;51.172;6.808;2023-06-14T16:39:26;29.70;29.70
4293;DHT22;2160;51.172;6.808;2023-06-14T16:41:54;29.30;30.60
4293;DHT22;2160;51.172;6.808;2023-06-14T16:44:21;29.20;30.10
4293;DHT22;2160;51.172;6.808;2023-06-14T16:46:48;29.30;30.20
4293;DHT22;2160;51.172;6.808;2023-06-14T16:49:15;29.20;32.40
4293;DHT22;2160;51.172;6.808;2023-06-14T16:51:42;29.30;32.90
4293;DHT22;2160;51.172;6.808;2023-06-14T16:54:09;29.30;32.90
4293;DHT22;2160;51.172;6.808;2023-06-14T16:56:36;29.30;33.00
4293;DHT22;2160;51.172;6.808;2023-06-14T16:59:04;29.20;33.10
4293;DHT22;2160;51.172;6.808;2023-06-14T17:01:31;29.20;33.10
4293;DHT22;2160;51.172;6.808;2023-06-14T17:03:59;29.10;34.10
4293;DHT22;2160;51.172;6.808;2023-06-14T17:06:26;28.90;30.70
4293;DHT22;2160;51.172;6.808;2023-06-14T17:08:53;28.80;31.50
4293;DHT22;2160;51.172;6.808;2023-06-14T17:11:20;28.90;30.90
4293;DHT22;2160;51.172;6.808;2023-06-14T17:13:48;29.00;32.40
4293;DHT22;2160;51.172;6.808;2023-06-14T17:16:17;29.10;32.10
4293;DHT22;2160;51.172;6.808;2023-06-14T17:18:44;29.10;32.50
4293;DHT22;2160;51.172;6.808;2023-06-14T17:21:12;29.20;32.50
4293;DHT22;2160;51.172;6.808;2023-06-14T17:23:39;29.20;31.50
4293;DHT22;2160;51.172;6.808;2023-06-14T17:26:06;29.20;32.60
4293;DHT22;2160;51.172;6.808;2023-06-14T17:28:34;29.10;31.50
4293;DHT22;2160;51.172;6.808;2023-06-14T17:31:01;29.20;31.20
4293;DHT22;2160;51.172;6.808;2023-06-14T17:33:29;29.40;30.70
4293;DHT22;2160;51.172;6.808;2023-06-14T17:35:56;29.70;30.70
4293;DHT22;2160;51.172;6.808;2023-06-14T17:38:23;29.70;32.80
4293;DHT22;2160;51.172;6.808;2023-06-14T17:40:52;29.70;32.30
4293;DHT22;2160;51.172;6.808;2023-06-14T17:43:19;29.70;32.30
4293;DHT22;2160;51.172;6.808;2023-06-14T17:45:47;29.70;32.80
4293;DHT22;2160;51.172;6.808;2023-06-14T17:48:13;29.50;32.30
4293;DHT22;2160;51.172;6.808;2023-06-14T17:50:42;29.40;32.30
4293;DHT22;2160;51.172;6.808;2023-06-14T17:53:09;29.60;33.00
4293;DHT22;2160;51.172;6.808;2023-06-14T17:55:36;29.40;31.60
4293;DHT22;2160;51.172;6.808;2023-06-14T17:58:03;29.20;31.60
4293;DHT22;2160;51.172;6.808;2023-06-14T18:00:30;29.30;31.50
4293;DHT22;2160;51.172;6.808;2023-06-14T18:02:57;29.20;31.80
4293;DHT22;2160;51.172;6.808;2023-06-14T18:05:24;29.20;32.10
4293;DHT22;2160;51.172;6.808;2023-06-14T18:07:53;29.00;31.80
4293;DHT22;2160;51.172;6.808;2023-06-14T18:10:20;28.80;31.70
4293;DHT22;2160;51.172;6.808;2023-06-14T18:12:47;28.60;32.60
4293;DHT22;2160;51.172;6.808;2023-06-14T18:15:14;28.60;32.90
4293;DHT22;2160;51.172;6.808;2023-06-14T18:17:42;28.70;32.60
4293;DHT22;2160;51.172;6.808;2023-06-14T18:20:09;28.60;32.90
4293;DHT22;2160;51.172;6.808;2023-06-14T18:22:36;28.30;33.00
4293;DHT22;2160;51.172;6.808;2023-06-14T18:25:05;28.20;32.40
4293;DHT22;2160;51.172;6.808;2023-06-14T18:27:32;28.10;32.60
4293;DHT22;2160;51.172;6.808;2023-06-14T18:29:59;28.10;32.50
4293;DHT22;2160;51.172;6.808;2023-06-14T18:32:26;28.10;32.80
4293;DHT22;2160;51.172;6.808;2023-06-14T18:34:55;28.00;33.20
4293;DHT22;2160;51.172;6.808;2023-06-14T18:37:22;28.00;33.70
4293;DHT22;2160;51.172;6.808;2023-06-14T18:39:50;27.90;33.40
4293;DHT22;2160;51.172;6.808;2023-06-14T18:42:18;27.80;34.30
4293;DHT22;2160;51.172;6.808;2023-06-14T18:44:47;27.70;34.40
4293;DHT22;2160;51.172;6.808;2023-06-14T18:47:14;27.60;34.70
4293;DHT22;2160;51.172;6.808;2023-06-14T18:49:41;27.60;34.60
4293;DHT22;2160;51.172;6.808;2023-06-14T18:52:08;27.50;34.80
4293;DHT22;2160;51.172;6.808;2023-06-14T18:54:36;27.50;34.90
4293;DHT22;2160;51.172;6.808;2023-06-14T18:57:03;27.30;35.00
4293;DHT22;2160;51.172;6.808;2023-06-14T18:59:32;27.20;35.80
4293;DHT22;2160;51.172;6.808;2023-06-14T19:01:59;27.20;35.20
4293;DHT22;2160;51.172;6.808;2023-06-14T19:04:26;27.20;35.50
4293;DHT22;2160;51.172;6.808;2023-06-14T19:06:53;27.30;36.10
4293;DHT22;2160;51.172;6.808;2023-06-14T19:09:20;27.20;35.60
4293;DHT22;2160;51.172;6.808;2023-06-14T19:11:48;27.20;35.80
4293;DHT22;2160;51.172;6.808;2023-06-14T19:14:15;27.10;35.90
4293;DHT22;2160;51.172;6.808;2023-06-14T19:16:44;27.00;36.10
4293;DHT22;2160;51.172;6.808;2023-06-14T19:19:11;27.00;36.40
4293;DHT22;2160;51.172;6.808;2023-06-14T19:21:38;27.00;36.50
4293;DHT22;2160;51.172;6.808;2023-06-14T19:24:05;26.90;36.70
4293;DHT22;2160;51.172;6.808;2023-06-14T19:26:32;26.80;37.20
4293;DHT22;2160;51.172;6.808;2023-06-14T19:28:59;26.70;37.30
4293;DHT22;2160;51.172;6.808;2023-06-14T19:31:26;26.70;37.70
4293;DHT22;2160;51.172;6.808;2023-06-14T19:33:54;26.70;37.90
4293;DHT22;2160;51.172;6.808;2023-06-14T19:36:21;26.70;37.70
4293;DHT22;2160;51.172;6.808;2023-06-14T19:38:48;26.70;38.20
4293;DHT22;2160;51.172;6.808;2023-06-14T19:41:17;26.70;38.00
4293;DHT22;2160;51.172;6.808;2023-06-14T19:43:44;26.60;37.90
4293;DHT22;2160;51.172;6.808;2023-06-14T19:46:11;26.60;38.00
4293;DHT22;2160;51.172;6.808;2023-06-14T19:48:38;26.50;38.20
4293;DHT22;2160;51.172;6.808;2023-06-14T19:51:07;26.50;38.00
4293;DHT22;2160;51.172;6.808;2023-06-14T19:53:34;26.50;38.00
4293;DHT22;2160;51.172;6.808;2023-06-14T19:56:01;26.40;38.60
4293;DHT22;2160;51.172;6.808;2023-06-14T19:58:28;26.40;38.50
4293;DHT22;2160;51.172;6.808;2023-06-14T20:00:55;26.40;38.30
4293;DHT22;2160;51.172;6.808;2023-06-14T20:03:22;26.30;38.90
4293;DHT22;2160;51.172;6.808;2023-06-14T20:05:49;26.10;38.50
4293;DHT22;2160;51.172;6.808;2023-06-14T20:08:18;26.00;38.80
4293;DHT22;2160;51.172;6.808;2023-06-14T20:10:49;26.00;38.80
4293;DHT22;2160;51.172;6.808;2023-06-14T20:13:16;26.00;38.80
4293;DHT22;2160;51.172;6.808;2023-06-14T20:15:43;26.00;39.20